FDX5202 EGSS-EIDW
Flight info
| Callsign | FDX5202 |
|---|---|
| Flight time | 0h 49m |
| Altitude | 24000 |
| Route | NUGBO1S NUGBO M183 SILVA/N0466F360 P86 DIDZA N14 OKSAW DCT BIBPE DCT OKTAD DCT MEDOG DCT KRAGY DCT PEMOB M17 VATRY VATRY4L |
| Aircraft | B77L/H-SDE1E2E3FGHIJ2J3J4J5M1RWXY/LB1D1 |
Departure
| Time | 2026-05-01 13:59 |
|---|---|
| Airport | London Stansted Airport (EGSS) |
Arrival
| Time | 2026-05-01 14:48 |
|---|---|
| Airport | Dublin Airport (EIDW) |
| Time | Latitude | Longitude | Altitude | Speed | Heading |
|---|---|---|---|---|---|
| 2026-05-01 13:42 | 51.88556 | 0.24553 | 361 ft | 0 kts | 42° |
| 2026-05-01 13:47 | 51.88538 | 0.24527 | 361 ft | 4 kts | 43° |
| 2026-05-01 13:48 | 51.88519 | 0.24500 | 358 ft | 4 kts | 23° |
| 2026-05-01 13:48 | 51.88496 | 0.24498 | 360 ft | 4 kts | 326° |
| 2026-05-01 13:48 | 51.88482 | 0.24518 | 360 ft | 0 kts | 313° |
| 2026-05-01 13:54 | 51.88482 | 0.24517 | 360 ft | 1 kts | 313° |
| 2026-05-01 13:54 | 51.88510 | 0.24465 | 360 ft | 10 kts | 304° |
| 2026-05-01 13:54 | 51.88534 | 0.24332 | 355 ft | 14 kts | 259° |
| 2026-05-01 13:55 | 51.88470 | 0.24216 | 356 ft | 15 kts | 222° |
| 2026-05-01 13:55 | 51.88391 | 0.24102 | 351 ft | 16 kts | 221° |
| 2026-05-01 13:55 | 51.88307 | 0.23977 | 354 ft | 17 kts | 223° |
| 2026-05-01 13:55 | 51.88217 | 0.23841 | 352 ft | 18 kts | 223° |
| 2026-05-01 13:56 | 51.88121 | 0.23698 | 352 ft | 19 kts | 223° |
| 2026-05-01 13:56 | 51.88025 | 0.23553 | 351 ft | 19 kts | 223° |
| 2026-05-01 13:56 | 51.87928 | 0.23409 | 352 ft | 19 kts | 223° |
| 2026-05-01 13:56 | 51.87832 | 0.23264 | 350 ft | 19 kts | 223° |
| 2026-05-01 13:57 | 51.87738 | 0.23115 | 351 ft | 19 kts | 239° |
| 2026-05-01 13:57 | 51.87782 | 0.22933 | 349 ft | 19 kts | 291° |
| 2026-05-01 13:57 | 51.87706 | 0.22775 | 351 ft | 19 kts | 221° |
| 2026-05-01 13:57 | 51.87608 | 0.22631 | 335 ft | 20 kts | 223° |
| 2026-05-01 13:58 | 51.87499 | 0.22471 | 333 ft | 22 kts | 222° |
| 2026-05-01 13:58 | 51.87404 | 0.22284 | 327 ft | 22 kts | 256° |
| 2026-05-01 13:58 | 51.87479 | 0.22067 | 325 ft | 24 kts | 314° |
| 2026-05-01 13:58 | 51.87556 | 0.22062 | 324 ft | 0 kts | 43° |
| 2026-05-01 13:59 | 51.87565 | 0.22075 | 323 ft | 10 kts | 43° |
| 2026-05-01 13:59 | 51.87843 | 0.22495 | 336 ft | 113 kts | 43° |
| 2026-05-01 13:59 | 51.88667 | 0.23753 | 633 ft | 198 kts | 46° |
| 2026-05-01 13:59 | 51.89674 | 0.25254 | 2113 ft | 197 kts | 46° |
| 2026-05-01 14:00 | 51.90729 | 0.26857 | 2859 ft | 224 kts | 47° |
| 2026-05-01 14:00 | 51.91964 | 0.28713 | 3281 ft | 256 kts | 43° |
| 2026-05-01 14:00 | 51.93577 | 0.30051 | 4062 ft | 273 kts | 9° |
| 2026-05-01 14:00 | 51.95466 | 0.29770 | 4610 ft | 275 kts | 334° |
| 2026-05-01 14:01 | 51.96936 | 0.27855 | 5018 ft | 275 kts | 301° |
| 2026-05-01 14:01 | 51.97588 | 0.25005 | 5007 ft | 268 kts | 275° |
| 2026-05-01 14:01 | 51.97771 | 0.21999 | 5016 ft | 268 kts | 271° |
| 2026-05-01 14:01 | 51.97965 | 0.18981 | 5036 ft | 268 kts | 273° |
| 2026-05-01 14:02 | 51.98138 | 0.15963 | 5543 ft | 270 kts | 271° |
| 2026-05-01 14:02 | 51.98345 | 0.12948 | 6823 ft | 269 kts | 273° |
| 2026-05-01 14:02 | 51.98617 | 0.09916 | 7936 ft | 276 kts | 274° |
| 2026-05-01 14:02 | 51.98912 | 0.06805 | 8983 ft | 280 kts | 271° |
| 2026-05-01 14:03 | 51.98752 | 0.03681 | 9855 ft | 279 kts | 252° |
| 2026-05-01 14:03 | 51.98284 | 0.00568 | 10781 ft | 287 kts | 253° |
| 2026-05-01 14:03 | 51.97862 | -0.02603 | 11859 ft | 289 kts | 253° |
| 2026-05-01 14:03 | 51.97450 | -0.05805 | 12935 ft | 292 kts | 253° |
| 2026-05-01 14:04 | 51.97033 | -0.09049 | 13951 ft | 298 kts | 253° |
| 2026-05-01 14:04 | 51.96585 | -0.12460 | 14396 ft | 323 kts | 253° |
| 2026-05-01 14:04 | 51.96102 | -0.16119 | 15017 ft | 338 kts | 253° |
| 2026-05-01 14:04 | 51.95777 | -0.18603 | 15567 ft | 343 kts | 253° |
| 2026-05-01 14:05 | 51.95142 | -0.23713 | 16166 ft | 350 kts | 257° |
| 2026-05-01 14:05 | 51.94881 | -0.27730 | 16165 ft | 367 kts | 261° |
| 2026-05-01 14:05 | 51.94686 | -0.31932 | 16775 ft | 380 kts | 262° |
| 2026-05-01 14:05 | 51.94501 | -0.36242 | 17712 ft | 385 kts | 262° |
| 2026-05-01 14:06 | 51.94311 | -0.40584 | 18714 ft | 388 kts | 261° |
| 2026-05-01 14:06 | 51.94110 | -0.44969 | 19566 ft | 393 kts | 261° |
| 2026-05-01 14:06 | 51.93900 | -0.49400 | 20384 ft | 398 kts | 261° |
| 2026-05-01 14:06 | 51.93675 | -0.53961 | 20916 ft | 412 kts | 261° |
| 2026-05-01 14:07 | 51.93439 | -0.58635 | 21495 ft | 422 kts | 261° |
| 2026-05-01 14:07 | 51.93194 | -0.63417 | 22211 ft | 428 kts | 261° |
| 2026-05-01 14:07 | 51.92947 | -0.68245 | 23050 ft | 432 kts | 261° |
| 2026-05-01 14:08 | 51.92439 | -0.78042 | 24154 ft | 439 kts | 261° |
| 2026-05-01 14:08 | 51.92181 | -0.82932 | 24133 ft | 441 kts | 261° |
| 2026-05-01 14:08 | 51.91920 | -0.87866 | 24132 ft | 440 kts | 261° |
| 2026-05-01 14:08 | 51.91656 | -0.92794 | 24120 ft | 439 kts | 261° |
| 2026-05-01 14:09 | 51.91390 | -0.97724 | 24147 ft | 439 kts | 261° |
| 2026-05-01 14:09 | 51.91122 | -1.02647 | 24133 ft | 439 kts | 261° |
| 2026-05-01 14:09 | 51.90851 | -1.07577 | 24131 ft | 439 kts | 261° |
| 2026-05-01 14:09 | 51.90577 | -1.12516 | 24130 ft | 439 kts | 261° |
| 2026-05-01 14:10 | 51.90301 | -1.17443 | 24131 ft | 439 kts | 261° |
| 2026-05-01 14:10 | 51.90025 | -1.22359 | 24130 ft | 439 kts | 261° |
| 2026-05-01 14:10 | 51.89745 | -1.27283 | 24133 ft | 439 kts | 261° |
| 2026-05-01 14:10 | 51.89463 | -1.32215 | 24130 ft | 439 kts | 261° |
| 2026-05-01 14:11 | 51.89180 | -1.37141 | 24136 ft | 439 kts | 261° |
| 2026-05-01 14:11 | 51.88612 | -1.46895 | 24141 ft | 440 kts | 261° |
| 2026-05-01 14:11 | 51.88323 | -1.51820 | 24138 ft | 440 kts | 261° |
| 2026-05-01 14:12 | 51.88029 | -1.56753 | 24254 ft | 442 kts | 261° |
| 2026-05-01 14:12 | 51.87732 | -1.61717 | 24920 ft | 445 kts | 261° |
| 2026-05-01 14:12 | 51.87438 | -1.66605 | 25656 ft | 447 kts | 261° |
| 2026-05-01 14:12 | 51.87135 | -1.71619 | 26351 ft | 450 kts | 261° |
| 2026-05-01 14:13 | 51.86826 | -1.76670 | 26982 ft | 454 kts | 261° |
| 2026-05-01 14:13 | 51.86619 | -1.80031 | 27374 ft | 457 kts | 261° |
| 2026-05-01 14:13 | 51.86227 | -1.86378 | 28135 ft | 463 kts | 261° |
| 2026-05-01 14:13 | 51.85892 | -1.91753 | 28803 ft | 466 kts | 261° |
| 2026-05-01 14:14 | 51.85568 | -1.96934 | 29459 ft | 469 kts | 260° |
| 2026-05-01 14:14 | 51.85236 | -2.02201 | 30057 ft | 472 kts | 260° |
| 2026-05-01 14:14 | 51.84903 | -2.07435 | 30524 ft | 476 kts | 260° |
| 2026-05-01 14:14 | 51.84565 | -2.12705 | 30953 ft | 479 kts | 260° |
| 2026-05-01 14:15 | 51.84218 | -2.18087 | 31373 ft | 482 kts | 261° |
| 2026-05-01 14:15 | 51.83893 | -2.23100 | 31769 ft | 484 kts | 261° |
| 2026-05-01 14:15 | 51.83541 | -2.28501 | 32348 ft | 482 kts | 261° |
| 2026-05-01 14:15 | 51.83208 | -2.33577 | 32975 ft | 479 kts | 261° |
| 2026-05-01 14:16 | 51.82857 | -2.38902 | 33578 ft | 477 kts | 261° |
| 2026-05-01 14:16 | 51.82522 | -2.43916 | 34095 ft | 476 kts | 261° |
| 2026-05-01 14:16 | 51.82231 | -2.54694 | 34161 ft | 483 kts | 270° |
| 2026-05-01 14:17 | 51.83127 | -2.65205 | 34155 ft | 482 kts | 279° |
| 2026-05-01 14:17 | 51.84571 | -2.75571 | 34160 ft | 483 kts | 279° |
| 2026-05-01 14:18 | 51.85997 | -2.85869 | 34140 ft | 483 kts | 279° |
| 2026-05-01 14:18 | 51.87186 | -2.94710 | 34153 ft | 484 kts | 278° |
| 2026-05-01 14:19 | 51.88815 | -3.07054 | 34153 ft | 485 kts | 278° |
| 2026-05-01 14:19 | 51.90214 | -3.17747 | 34152 ft | 485 kts | 278° |
| 2026-05-01 14:20 | 51.92286 | -3.33716 | 34184 ft | 486 kts | 278° |
| 2026-05-01 14:21 | 51.93665 | -3.44431 | 34202 ft | 486 kts | 277° |
| 2026-05-01 14:21 | 51.95035 | -3.55157 | 34180 ft | 486 kts | 277° |
| 2026-05-01 14:22 | 51.97071 | -3.71210 | 34179 ft | 486 kts | 277° |
| 2026-05-01 14:22 | 51.98425 | -3.81967 | 34193 ft | 486 kts | 277° |
| 2026-05-01 14:23 | 51.99769 | -3.92723 | 34212 ft | 487 kts | 276° |
| 2026-05-01 14:23 | 52.01105 | -4.03505 | 34191 ft | 488 kts | 276° |
| 2026-05-01 14:24 | 52.02433 | -4.14314 | 34185 ft | 488 kts | 276° |
| 2026-05-01 14:24 | 52.03750 | -4.25121 | 34169 ft | 488 kts | 276° |
| 2026-05-01 14:25 | 52.05046 | -4.35798 | 33723 ft | 472 kts | 276° |
| 2026-05-01 14:25 | 52.05673 | -4.40991 | 33062 ft | 468 kts | 276° |
| 2026-05-01 14:25 | 52.06293 | -4.46172 | 32442 ft | 466 kts | 275° |
| 2026-05-01 14:26 | 52.06907 | -4.51342 | 31808 ft | 464 kts | 275° |
| 2026-05-01 14:26 | 52.08118 | -4.61580 | 30575 ft | 459 kts | 275° |
| 2026-05-01 14:26 | 52.08716 | -4.66655 | 29927 ft | 457 kts | 275° |
| 2026-05-01 14:27 | 52.09311 | -4.71724 | 29230 ft | 454 kts | 275° |
| 2026-05-01 14:27 | 52.09898 | -4.76750 | 28554 ft | 451 kts | 275° |
| 2026-05-01 14:27 | 52.10472 | -4.81677 | 27897 ft | 448 kts | 275° |
| 2026-05-01 14:28 | 52.11620 | -4.91577 | 26596 ft | 443 kts | 275° |
| 2026-05-01 14:28 | 52.12187 | -4.96504 | 26022 ft | 440 kts | 275° |
| 2026-05-01 14:28 | 52.12743 | -5.01384 | 25410 ft | 437 kts | 275° |
| 2026-05-01 14:28 | 52.13290 | -5.06221 | 24817 ft | 435 kts | 275° |
| 2026-05-01 14:29 | 52.13936 | -5.11010 | 24209 ft | 432 kts | 284° |
| 2026-05-01 14:29 | 52.15358 | -5.15262 | 23547 ft | 424 kts | 305° |
| 2026-05-01 14:30 | 52.22635 | -5.23089 | 21610 ft | 427 kts | 332° |
| 2026-05-01 14:30 | 52.25322 | -5.25203 | 21020 ft | 428 kts | 332° |
| 2026-05-01 14:30 | 52.27994 | -5.27327 | 20551 ft | 426 kts | 331° |
| 2026-05-01 14:31 | 52.33258 | -5.31615 | 19651 ft | 419 kts | 330° |
| 2026-05-01 14:31 | 52.35848 | -5.33755 | 19202 ft | 415 kts | 330° |
| 2026-05-01 14:31 | 52.37547 | -5.35163 | 18902 ft | 413 kts | 330° |
| 2026-05-01 14:31 | 52.40101 | -5.37280 | 18467 ft | 410 kts | 330° |
| 2026-05-01 14:32 | 52.42638 | -5.39385 | 17962 ft | 407 kts | 330° |
| 2026-05-01 14:32 | 52.45157 | -5.41474 | 17471 ft | 404 kts | 330° |
| 2026-05-01 14:32 | 52.47648 | -5.43542 | 17022 ft | 400 kts | 330° |
| 2026-05-01 14:32 | 52.50125 | -5.45600 | 16578 ft | 396 kts | 330° |
| 2026-05-01 14:33 | 52.52571 | -5.47637 | 16134 ft | 392 kts | 330° |
| 2026-05-01 14:33 | 52.54995 | -5.49654 | 15685 ft | 388 kts | 330° |
| 2026-05-01 14:33 | 52.57466 | -5.51367 | 15258 ft | 386 kts | 339° |
| 2026-05-01 14:33 | 52.60013 | -5.52721 | 14942 ft | 382 kts | 340° |
| 2026-05-01 14:34 | 52.62530 | -5.54008 | 14761 ft | 376 kts | 341° |
| 2026-05-01 14:34 | 52.65015 | -5.55264 | 14531 ft | 371 kts | 341° |
| 2026-05-01 14:34 | 52.67482 | -5.56512 | 14251 ft | 369 kts | 341° |
| 2026-05-01 14:34 | 52.69920 | -5.57751 | 13902 ft | 365 kts | 341° |
| 2026-05-01 14:35 | 52.72331 | -5.58983 | 13459 ft | 362 kts | 340° |
| 2026-05-01 14:35 | 52.74727 | -5.60211 | 13029 ft | 358 kts | 340° |
| 2026-05-01 14:35 | 52.77096 | -5.61430 | 12629 ft | 355 kts | 340° |
| 2026-05-01 14:35 | 52.79439 | -5.62638 | 12221 ft | 351 kts | 340° |
| 2026-05-01 14:36 | 52.81760 | -5.63837 | 11824 ft | 348 kts | 340° |
| 2026-05-01 14:36 | 52.84033 | -5.65013 | 11436 ft | 344 kts | 340° |
| 2026-05-01 14:36 | 52.86329 | -5.66203 | 11029 ft | 341 kts | 340° |
| 2026-05-01 14:36 | 52.88587 | -5.67373 | 10664 ft | 338 kts | 340° |
| 2026-05-01 14:37 | 52.90775 | -5.68509 | 10514 ft | 327 kts | 340° |
| 2026-05-01 14:37 | 52.92911 | -5.69617 | 10358 ft | 317 kts | 340° |
| 2026-05-01 14:37 | 52.94976 | -5.70690 | 10231 ft | 306 kts | 340° |
| 2026-05-01 14:37 | 52.96975 | -5.71730 | 10044 ft | 297 kts | 340° |
| 2026-05-01 14:38 | 52.98934 | -5.72752 | 9724 ft | 294 kts | 340° |
| 2026-05-01 14:38 | 53.00871 | -5.73763 | 9414 ft | 289 kts | 340° |
| 2026-05-01 14:38 | 53.02782 | -5.74763 | 9108 ft | 285 kts | 340° |
| 2026-05-01 14:38 | 53.04659 | -5.75745 | 8810 ft | 282 kts | 340° |
| 2026-05-01 14:39 | 53.06536 | -5.76728 | 8521 ft | 285 kts | 340° |
| 2026-05-01 14:39 | 53.08444 | -5.77729 | 8235 ft | 289 kts | 340° |
| 2026-05-01 14:39 | 53.10361 | -5.78735 | 7933 ft | 287 kts | 340° |
| 2026-05-01 14:39 | 53.12257 | -5.79729 | 7548 ft | 286 kts | 340° |
| 2026-05-01 14:40 | 53.14153 | -5.80726 | 7158 ft | 285 kts | 340° |
| 2026-05-01 14:40 | 53.16034 | -5.81714 | 6824 ft | 283 kts | 340° |
| 2026-05-01 14:40 | 53.17908 | -5.82699 | 6465 ft | 281 kts | 340° |
| 2026-05-01 14:40 | 53.19771 | -5.83680 | 6053 ft | 280 kts | 340° |
| 2026-05-01 14:41 | 53.21611 | -5.84651 | 5723 ft | 276 kts | 340° |
| 2026-05-01 14:41 | 53.23431 | -5.85611 | 5392 ft | 273 kts | 340° |
| 2026-05-01 14:41 | 53.25240 | -5.86566 | 4991 ft | 272 kts | 340° |
| 2026-05-01 14:41 | 53.27030 | -5.87512 | 4837 ft | 264 kts | 339° |
| 2026-05-01 14:42 | 53.28785 | -5.88441 | 4832 ft | 268 kts | 340° |
| 2026-05-01 14:42 | 53.30606 | -5.89408 | 4500 ft | 278 kts | 340° |
| 2026-05-01 14:42 | 53.32400 | -5.90356 | 4193 ft | 273 kts | 340° |
| 2026-05-01 14:42 | 53.34216 | -5.91318 | 3900 ft | 266 kts | 340° |
| 2026-05-01 14:43 | 53.35939 | -5.92228 | 3790 ft | 254 kts | 340° |
| 2026-05-01 14:43 | 53.37581 | -5.93098 | 3661 ft | 240 kts | 339° |
| 2026-05-01 14:43 | 53.39074 | -5.94039 | 3580 ft | 217 kts | 324° |
| 2026-05-01 14:43 | 53.39987 | -5.95780 | 3482 ft | 188 kts | 285° |
| 2026-05-01 14:44 | 53.40177 | -5.97771 | 3261 ft | 168 kts | 268° |
| 2026-05-01 14:44 | 53.40683 | -6.01636 | 2958 ft | 173 kts | 277° |
| 2026-05-01 14:44 | 53.40854 | -6.03605 | 2731 ft | 163 kts | 272° |
| 2026-05-01 14:45 | 53.40965 | -6.05490 | 2553 ft | 168 kts | 272° |
| 2026-05-01 14:45 | 53.41178 | -6.09359 | 2094 ft | 164 kts | 272° |
| 2026-05-01 14:45 | 53.41281 | -6.11263 | 1888 ft | 161 kts | 271° |
| 2026-05-01 14:46 | 53.41379 | -6.13066 | 1651 ft | 150 kts | 271° |
| 2026-05-01 14:46 | 53.41565 | -6.16530 | 1261 ft | 153 kts | 270° |
| 2026-05-01 14:46 | 53.41661 | -6.18320 | 1046 ft | 154 kts | 270° |
| 2026-05-01 14:47 | 53.41759 | -6.20063 | 858 ft | 144 kts | 273° |
| 2026-05-01 14:47 | 53.41837 | -6.21659 | 625 ft | 131 kts | 272° |
| 2026-05-01 14:47 | 53.41905 | -6.23120 | 491 ft | 127 kts | 275° |
| 2026-05-01 14:48 | 53.42077 | -6.26177 | 221 ft | 115 kts | 276° |
| 2026-05-01 14:48 | 53.42141 | -6.27191 | 219 ft | 55 kts | 276° |
| 2026-05-01 14:48 | 53.42287 | -6.28093 | 221 ft | 8 kts | 316° |
| 2026-05-01 14:49 | 53.42358 | -6.28043 | 223 ft | 8 kts | 83° |
| 2026-05-01 14:49 | 53.42349 | -6.27794 | 222 ft | 12 kts | 96° |
| 2026-05-01 14:50 | 53.42335 | -6.27554 | 219 ft | 14 kts | 95° |
| 2026-05-01 14:50 | 53.42305 | -6.26976 | 222 ft | 28 kts | 95° |
| 2026-05-01 14:51 | 53.42286 | -6.26620 | 216 ft | 32 kts | 95° |
| 2026-05-01 14:51 | 53.42251 | -6.26026 | 218 ft | 22 kts | 96° |
| 2026-05-01 14:52 | 53.42234 | -6.25700 | 222 ft | 16 kts | 94° |
| 2026-05-01 14:52 | 53.42224 | -6.25460 | 219 ft | 26 kts | 95° |
| 2026-05-01 14:52 | 53.42180 | -6.24761 | 215 ft | 31 kts | 94° |
| 2026-05-01 14:53 | 53.42164 | -6.24411 | 220 ft | 30 kts | 95° |
| 2026-05-01 14:53 | 53.42228 | -6.24153 | 219 ft | 18 kts | 47° |
| 2026-05-01 14:53 | 53.42247 | -6.24058 | 222 ft | 6 kts | 79° |
| 2026-05-01 14:53 | 53.42264 | -6.23994 | 221 ft | 6 kts | 42° |
| 2026-05-01 14:54 | 53.42287 | -6.23981 | 215 ft | 2 kts | 14° |
| 2026-05-01 14:54 | 53.42301 | -6.23975 | 215 ft | 0 kts | 14° |
| 2026-05-01 14:54 | 53.42303 | -6.23974 | 215 ft | 0 kts | 14° |
| 2026-05-01 14:55 | 53.42312 | -6.23968 | 224 ft | 0 kts | 90° |